createdAt,value
2018-02-03T00:01:02.000Z,2.98
2018-02-03T00:02:11.752Z,2.88
2018-02-03T00:03:21.528Z,2.93
2018-02-03T00:04:31.546Z,2.97
2018-02-03T00:05:41.529Z,3
2018-02-03T00:06:51.524Z,2.9
2018-02-03T00:08:01.516Z,2.98
2018-02-03T00:09:11.557Z,2.98
2018-02-03T00:10:21.089Z,2.91
2018-02-03T00:11:30.822Z,2.98
2018-02-03T00:12:40.290Z,2.94
2018-02-03T00:13:50.024Z,2.94
2018-02-03T00:15:00.034Z,2.95
2018-02-03T00:16:10.029Z,2.9
2018-02-03T00:17:20.019Z,2.97
2018-02-03T00:18:29.733Z,2.95
2018-02-03T00:19:39.202Z,2.98
2018-02-03T00:20:48.934Z,2.95
2018-02-03T00:21:58.916Z,2.93
2018-02-03T00:23:08.647Z,2.95
2018-02-03T00:24:18.380Z,3.01
2018-02-03T00:25:28.362Z,3.01
2018-02-03T00:26:38.074Z,2.97
2018-02-03T00:27:47.806Z,2.98
2018-02-03T00:28:57.783Z,3
2018-02-03T00:30:07.231Z,2.98
2018-02-03T00:31:17.175Z,2.97
2018-02-03T00:32:27.123Z,2.93
2018-02-03T00:33:37.088Z,2.87
2018-02-03T00:34:46.763Z,2.79
2018-02-03T00:35:56.440Z,2.87
2018-02-03T00:37:06.171Z,2.91
2018-02-03T00:38:16.108Z,2.83
2018-02-03T00:39:26.097Z,2.87
2018-02-03T00:40:36.040Z,2.88
2018-02-03T00:41:45.978Z,2.91
2018-02-03T00:42:55.906Z,2.83
2018-02-03T00:44:05.850Z,2.88
2018-02-03T00:45:15.281Z,2.9
2018-02-03T00:46:25.224Z,2.93
2018-02-03T00:47:35.172Z,2.93
2018-02-03T00:48:44.856Z,2.98
2018-02-03T00:49:54.795Z,2.9
2018-02-03T00:51:04.745Z,2.98
2018-02-03T00:52:14.718Z,2.9
2018-02-03T00:53:24.694Z,2.91
2018-02-03T00:54:34.668Z,2.79
2018-02-03T00:55:44.647Z,2.85
2018-02-03T00:56:54.374Z,2.79
2018-02-03T00:58:04.348Z,2.7
2018-02-03T00:59:14.323Z,2.51
2018-02-03T01:00:24.296Z,2.51
2018-02-03T01:01:33.782Z,2.44
2018-02-03T01:02:43.757Z,2.52
2018-02-03T01:03:53.739Z,2.44
2018-02-03T01:05:03.736Z,2.46
2018-02-03T01:06:13.708Z,2.52
2018-02-03T01:07:23.686Z,2.5
2018-02-03T01:08:33.695Z,2.47
2018-02-03T01:09:43.697Z,2.47
2018-02-03T01:10:53.667Z,2.5
2018-02-03T01:12:03.648Z,2.58
2018-02-03T01:13:13.630Z,2.59
2018-02-03T01:14:23.350Z,2.58
2018-02-03T01:15:33.079Z,2.58
2018-02-03T01:16:42.793Z,2.58
2018-02-03T01:17:52.777Z,2.58
2018-02-03T01:19:02.246Z,2.65
2018-02-03T01:20:11.773Z,2.64
2018-02-03T01:21:21.491Z,2.75
2018-02-03T01:22:31.217Z,2.7
2018-02-03T01:23:40.690Z,2.69
2018-02-03T01:24:50.674Z,2.73
2018-02-03T01:26:00.645Z,2.73
2018-02-03T01:27:10.625Z,2.65
2018-02-03T01:28:20.599Z,2.73
2018-02-03T01:29:30.565Z,2.62
2018-02-03T01:30:40.289Z,2.69
2018-02-03T01:31:50.513Z,2.73
2018-02-03T01:33:00.498Z,2.72
2018-02-03T01:34:10.483Z,2.68
2018-02-03T01:35:20.469Z,2.68
2018-02-03T01:36:30.487Z,2.69
2018-02-03T01:37:39.941Z,2.7
2018-02-03T01:38:49.665Z,2.7
2018-02-03T01:39:59.386Z,2.7
2018-02-03T01:41:09.371Z,2.64
2018-02-03T01:42:19.084Z,2.69
2018-02-03T01:43:29.056Z,2.7
2018-02-03T01:44:39.009Z,2.69
2018-02-03T01:45:48.954Z,2.69
2018-02-03T01:46:58.889Z,2.68
2018-02-03T01:48:08.310Z,2.7
2018-02-03T01:49:18.290Z,2.75
2018-02-03T01:50:28.227Z,2.7
2018-02-03T01:51:38.171Z,2.77
2018-02-03T01:52:48.328Z,2.76
2018-02-03T01:53:58.310Z,2.73
2018-02-03T01:55:08.277Z,2.77
2018-02-03T01:56:18.249Z,2.72
2018-02-03T01:57:28.239Z,2.73
2018-02-03T01:58:38.217Z,2.8
2018-02-03T01:59:48.213Z,2.77
2018-02-03T02:00:58.191Z,2.75
2018-02-03T02:02:08.165Z,2.72
2018-02-03T02:03:18.149Z,2.82
2018-02-03T02:04:28.135Z,2.82
2018-02-03T02:05:38.122Z,2.76
2018-02-03T02:06:47.642Z,2.79
2018-02-03T02:07:57.368Z,2.82
2018-02-03T02:09:07.357Z,2.83
2018-02-03T02:10:17.068Z,2.83
2018-02-03T02:11:27.056Z,2.85
2018-02-03T02:12:37.047Z,2.8
2018-02-03T02:13:46.503Z,2.8
2018-02-03T02:14:56.481Z,2.82
2018-02-03T02:16:06.456Z,2.77
2018-02-03T02:17:16.179Z,2.87
2018-02-03T02:18:26.167Z,2.93
2018-02-03T02:19:36.185Z,2.82
2018-02-03T02:20:46.170Z,2.9
2018-02-03T02:21:56.156Z,2.85
2018-02-03T02:23:05.859Z,2.91
2018-02-03T02:24:15.334Z,2.87
2018-02-03T02:25:25.316Z,2.97
2018-02-03T02:26:35.289Z,2.97
2018-02-03T02:27:45.268Z,2.93
2018-02-03T02:28:55.239Z,2.94
2018-02-03T02:30:04.995Z,2.91
2018-02-03T02:31:14.991Z,3.01
2018-02-03T02:32:25.015Z,2.95
2018-02-03T02:33:35.002Z,2.91
2018-02-03T02:34:44.990Z,2.93
2018-02-03T02:35:54.721Z,2.98
2018-02-03T02:37:04.706Z,3.03
2018-02-03T02:38:14.164Z,3
2018-02-03T02:39:24.147Z,3.06
2018-02-03T02:40:34.132Z,2.94
2018-02-03T02:41:43.857Z,2.95
2018-02-03T02:42:53.843Z,3.03
2018-02-03T02:44:03.831Z,3.03
2018-02-03T02:45:13.824Z,3.05
2018-02-03T02:46:23.562Z,3.11
2018-02-03T02:47:33.530Z,3.06
2018-02-03T02:48:43.516Z,3.12
2018-02-03T02:49:53.513Z,3.09
2018-02-03T02:51:03.531Z,3.06
2018-02-03T02:52:13.522Z,3.12
2018-02-03T02:53:23.246Z,3.09
2018-02-03T02:54:33.229Z,3.09
2018-02-03T02:55:42.955Z,3.08
2018-02-03T02:56:52.951Z,3.18
2018-02-03T02:58:02.942Z,3.09
2018-02-03T02:59:12.666Z,3.08
2018-02-03T03:00:22.634Z,3.09
2018-02-03T03:01:32.608Z,3.13
2018-02-03T03:02:42.614Z,3.06
2018-02-03T03:03:52.431Z,3.11
2018-02-03T03:05:02.117Z,3.06
2018-02-03T03:06:11.556Z,3.06
2018-02-03T03:07:21.506Z,3.16
2018-02-03T03:08:31.446Z,3.12
2018-02-03T03:09:41.387Z,3.12
2018-02-03T03:10:51.354Z,3.13
2018-02-03T03:12:01.347Z,3.09
2018-02-03T03:13:11.313Z,3.12
2018-02-03T03:14:20.768Z,3.06
2018-02-03T03:15:30.754Z,3.05
2018-02-03T03:16:40.479Z,3.05
2018-02-03T03:17:50.202Z,3.13
2018-02-03T03:18:59.924Z,3.06
2018-02-03T03:20:09.651Z,3.21
2018-02-03T03:21:19.620Z,3.24
2018-02-03T03:22:29.597Z,3.11
2018-02-03T03:23:39.330Z,3.11
2018-02-03T03:24:49.317Z,3.11
2018-02-03T03:25:59.032Z,3.19
2018-02-03T03:27:09.019Z,3.11
2018-02-03T03:28:18.998Z,3.11
2018-02-03T03:29:29.000Z,3.19
2018-02-03T03:30:38.976Z,3.18
2018-02-03T03:31:48.696Z,3.11
2018-02-03T03:32:58.386Z,3.21
2018-02-03T03:34:08.074Z,3.16
2018-02-03T03:35:18.013Z,3.06
2018-02-03T03:36:27.952Z,3.09
2018-02-03T03:37:37.632Z,3.13
2018-02-03T03:38:47.566Z,3.18
2018-02-03T03:39:57.509Z,3.15
2018-02-03T03:41:07.474Z,3.16
2018-02-03T03:42:17.155Z,3.13
2018-02-03T03:43:27.121Z,3.08
2018-02-03T03:44:36.843Z,3.11
2018-02-03T03:45:46.564Z,3.09
2018-02-03T03:46:56.529Z,3.13
2018-02-03T03:48:06.528Z,3.09
2018-02-03T03:49:16.475Z,3.06
2018-02-03T03:50:26.158Z,3.06
2018-02-03T03:51:36.100Z,3.08
2018-02-03T03:52:45.552Z,3.15
2018-02-03T03:53:55.564Z,3.08
2018-02-03T03:55:05.309Z,3.08
2018-02-03T03:56:15.278Z,3.16
2018-02-03T03:57:25.001Z,3.13
2018-02-03T03:58:34.988Z,3.13
2018-02-03T03:59:44.962Z,3.13
2018-02-03T04:00:54.947Z,3.09
2018-02-03T04:02:04.665Z,3.13
2018-02-03T04:03:14.382Z,3.12
2018-02-03T04:04:24.118Z,3.08
2018-02-03T04:05:33.846Z,3.09
2018-02-03T04:06:43.836Z,3.15
2018-02-03T04:07:53.820Z,3.13
2018-02-03T04:09:03.786Z,3.09
2018-02-03T04:10:13.255Z,3.16
2018-02-03T04:11:23.250Z,3.09
2018-02-03T04:12:33.028Z,3.09
2018-02-03T04:13:42.511Z,3.11
2018-02-03T04:14:52.221Z,3.09
2018-02-03T04:16:02.197Z,3.06
2018-02-03T04:17:11.624Z,3.03
2018-02-03T04:18:21.304Z,3.15
2018-02-03T04:19:30.731Z,3.11
2018-02-03T04:20:40.672Z,3.06
2018-02-03T04:21:50.612Z,3.06
2018-02-03T04:23:00.306Z,3.12
2018-02-03T04:24:10.282Z,3.06
2018-02-03T04:25:20.228Z,3.13
2018-02-03T04:26:29.648Z,3.09
2018-02-03T04:27:39.581Z,3.05
2018-02-03T04:28:49.523Z,3.08
2018-02-03T04:29:59.467Z,3.13
2018-02-03T04:31:09.647Z,3.09
2018-02-03T04:32:19.346Z,3.12
2018-02-03T04:33:29.290Z,3.09
2018-02-03T04:34:39.215Z,3.11
2018-02-03T04:35:49.152Z,3.01
2018-02-03T04:36:58.859Z,3.12
2018-02-03T04:38:08.583Z,3.18
2018-02-03T04:39:18.294Z,3.12
2018-02-03T04:40:28.008Z,3.11
2018-02-03T04:41:37.998Z,3.08
2018-02-03T04:42:47.728Z,3.08
2018-02-03T04:43:57.710Z,3.05
2018-02-03T04:45:07.721Z,3.06
2018-02-03T04:46:17.714Z,3.06
2018-02-03T04:47:27.689Z,2.95
2018-02-03T04:48:37.400Z,2.9
2018-02-03T04:49:47.374Z,2.85
2018-02-03T04:50:57.114Z,2.87
2018-02-03T04:52:07.081Z,2.83
2018-02-03T04:53:17.067Z,2.8
2018-02-03T04:54:26.787Z,2.75
2018-02-03T04:55:36.503Z,2.73
2018-02-03T04:56:46.536Z,2.68
2018-02-03T04:57:56.253Z,2.51
2018-02-03T04:59:05.984Z,2.47
2018-02-03T05:00:15.759Z,2.4
2018-02-03T05:01:25.552Z,2.34
2018-02-03T05:02:35.526Z,2.28
2018-02-03T05:03:45.525Z,2.25
2018-02-03T05:04:55.559Z,2.25
2018-02-03T05:06:05.589Z,2.26
2018-02-03T05:07:15.093Z,2.21
2018-02-03T05:08:25.083Z,2.21
2018-02-03T05:09:35.063Z,2.25
2018-02-03T05:10:45.035Z,2.23
2018-02-03T05:11:55.042Z,2.15
2018-02-03T05:13:04.503Z,2.14
2018-02-03T05:14:14.489Z,2.23
2018-02-03T05:15:24.483Z,2.25
2018-02-03T05:16:34.189Z,2.33
2018-02-03T05:17:44.174Z,2.26
2018-02-03T05:18:54.413Z,2.25
2018-02-03T05:20:04.128Z,2.3
2018-02-03T05:21:14.100Z,2.3
2018-02-03T05:22:24.120Z,2.28
2018-02-03T05:23:33.330Z,2.3
2018-02-03T05:24:43.321Z,2.3
2018-02-03T05:25:53.034Z,2.32
2018-02-03T05:27:03.015Z,2.3
2018-02-03T05:28:13.014Z,2.28
2018-02-03T05:29:22.983Z,2.34
2018-02-03T05:30:33.252Z,2.39
2018-02-03T05:31:42.994Z,2.34
2018-02-03T05:32:52.964Z,2.3
2018-02-03T05:34:02.959Z,2.3
2018-02-03T05:35:12.927Z,2.37
2018-02-03T05:36:22.916Z,2.37
2018-02-03T05:37:32.897Z,2.33
2018-02-03T05:38:42.874Z,2.43
2018-02-03T05:39:52.850Z,2.4
2018-02-03T05:41:02.580Z,2.4
2018-02-03T05:42:12.550Z,2.37
2018-02-03T05:43:21.759Z,2.43
2018-02-03T05:44:31.526Z,2.43
2018-02-03T05:45:41.509Z,2.41
2018-02-03T05:46:51.236Z,2.41
2018-02-03T05:48:01.211Z,2.4
2018-02-03T05:49:11.196Z,2.43
2018-02-03T05:50:20.976Z,2.44
2018-02-03T05:51:30.692Z,2.43
2018-02-03T05:52:40.658Z,2.4
2018-02-03T05:53:50.630Z,2.43
2018-02-03T05:55:00.604Z,2.43
2018-02-03T05:56:10.569Z,2.39
2018-02-03T05:57:20.293Z,2.43
2018-02-03T05:58:30.009Z,2.43
2018-02-03T05:59:39.472Z,2.4
2018-02-03T06:00:49.174Z,2.39
2018-02-03T06:01:58.892Z,2.41
2018-02-03T06:03:08.617Z,2.37
2018-02-03T06:04:18.461Z,2.4
2018-02-03T06:05:28.182Z,2.37
2018-02-03T06:06:38.159Z,2.51
2018-02-03T06:07:47.886Z,2.41
2018-02-03T06:08:57.874Z,2.44
2018-02-03T06:10:07.854Z,2.46
2018-02-03T06:11:17.561Z,2.5
2018-02-03T06:12:27.546Z,2.5
2018-02-03T06:13:37.279Z,2.51
2018-02-03T06:14:46.754Z,2.47
2018-02-03T06:15:56.723Z,2.5
2018-02-03T06:17:06.705Z,2.57
2018-02-03T06:18:16.430Z,2.52
2018-02-03T06:19:26.147Z,2.5
2018-02-03T06:20:36.124Z,2.46
2018-02-03T06:21:45.846Z,2.47
2018-02-03T06:22:55.819Z,2.52
2018-02-03T06:24:05.535Z,2.68
2018-02-03T06:25:15.529Z,2.47
2018-02-03T06:26:25.253Z,2.5
2018-02-03T06:27:35.233Z,2.46
2018-02-03T06:28:45.216Z,2.58
2018-02-03T06:29:54.934Z,2.58
2018-02-03T06:31:04.912Z,2.59
2018-02-03T06:32:14.121Z,2.68
2018-02-03T06:33:24.088Z,2.61
2018-02-03T06:34:34.071Z,2.58
2018-02-03T06:35:44.045Z,2.59
2018-02-03T06:36:54.017Z,2.57
2018-02-03T06:38:04.011Z,2.54
2018-02-03T06:39:13.983Z,2.58
2018-02-03T06:40:23.979Z,2.57
2018-02-03T06:41:33.946Z,2.59
2018-02-03T06:42:43.937Z,2.59
2018-02-03T06:43:53.651Z,2.59
2018-02-03T06:45:03.408Z,2.57
2018-02-03T06:46:13.394Z,2.59
2018-02-03T06:47:23.108Z,2.5
2018-02-03T06:48:32.823Z,2.5
2018-02-03T06:49:42.822Z,2.51
2018-02-03T06:50:52.809Z,2.52
2018-02-03T06:52:02.777Z,2.47
2018-02-03T06:53:12.563Z,2.55
2018-02-03T06:54:22.282Z,2.52
2018-02-03T06:55:32.259Z,2.52
2018-02-03T06:56:42.233Z,2.5
2018-02-03T06:57:52.193Z,2.51
2018-02-03T06:59:02.261Z,2.47
2018-02-03T07:00:11.776Z,2.5
2018-02-03T07:01:21.750Z,2.47
2018-02-03T07:02:31.725Z,2.46
2018-02-03T07:03:41.706Z,2.46
2018-02-03T07:04:51.701Z,2.52
2018-02-03T07:06:01.682Z,2.47
2018-02-03T07:07:11.671Z,2.51
2018-02-03T07:08:21.662Z,2.52
2018-02-03T07:09:31.377Z,2.4
2018-02-03T07:10:41.096Z,2.37
2018-02-03T07:11:51.088Z,2.41
2018-02-03T07:13:01.083Z,2.41
2018-02-03T07:14:11.060Z,2.41
2018-02-03T07:15:20.781Z,2.44
2018-02-03T07:16:30.760Z,2.5
2018-02-03T07:17:40.742Z,2.5
2018-02-03T07:18:50.725Z,2.43
2018-02-03T07:20:00.713Z,2.52
2018-02-03T07:21:10.698Z,2.52
2018-02-03T07:22:20.676Z,2.51
2018-02-03T07:23:30.675Z,2.46
2018-02-03T07:24:40.649Z,2.5
2018-02-03T07:25:50.624Z,2.5
2018-02-03T07:27:00.089Z,2.46
2018-02-03T07:28:09.796Z,2.5
2018-02-03T07:29:19.783Z,2.5
2018-02-03T07:30:29.758Z,2.54
2018-02-03T07:31:39.220Z,2.51
2018-02-03T07:32:48.945Z,2.5
2018-02-03T07:33:58.408Z,2.46
2018-02-03T07:35:08.135Z,2.58
2018-02-03T07:36:18.101Z,2.51
2018-02-03T07:37:27.837Z,2.5
2018-02-03T07:38:37.821Z,2.51
2018-02-03T07:39:47.542Z,2.61
2018-02-03T07:40:57.536Z,2.47
2018-02-03T07:42:07.514Z,2.52
2018-02-03T07:43:17.505Z,2.52
2018-02-03T07:44:27.837Z,2.5
2018-02-03T07:45:37.550Z,2.57
2018-02-03T07:46:47.530Z,2.52
2018-02-03T07:47:57.521Z,2.52
2018-02-03T07:49:06.974Z,2.58
2018-02-03T07:50:16.447Z,2.58
2018-02-03T07:51:26.452Z,2.7
2018-02-03T07:52:36.511Z,2.58
2018-02-03T07:53:46.486Z,2.59
2018-02-03T07:54:56.467Z,2.59
2018-02-03T07:56:06.191Z,2.64
2018-02-03T07:57:15.912Z,2.59
2018-02-03T07:58:25.880Z,2.65
2018-02-03T07:59:35.860Z,2.7
2018-02-03T08:00:45.595Z,2.72
2018-02-03T08:01:55.570Z,2.73
2018-02-03T08:03:05.280Z,2.7
2018-02-03T08:04:14.997Z,2.64
2018-02-03T08:05:24.995Z,2.64
2018-02-03T08:06:34.987Z,2.62
2018-02-03T08:07:44.750Z,2.68
2018-02-03T08:08:54.715Z,2.68
2018-02-03T08:10:04.463Z,2.7
2018-02-03T08:11:14.522Z,2.7
2018-02-03T08:12:24.249Z,2.65
2018-02-03T08:13:34.238Z,2.73
2018-02-03T08:14:43.961Z,2.72
2018-02-03T08:15:53.946Z,2.7
2018-02-03T08:17:03.927Z,2.69
2018-02-03T08:18:13.392Z,2.64
2018-02-03T08:19:23.678Z,2.75
2018-02-03T08:20:33.727Z,2.68
2018-02-03T08:21:43.449Z,2.8
2018-02-03T08:22:53.423Z,2.76
2018-02-03T08:24:03.396Z,2.76
2018-02-03T08:25:13.400Z,2.76
2018-02-03T08:26:23.368Z,2.68
2018-02-03T08:27:32.844Z,2.77
2018-02-03T08:28:42.836Z,2.76
2018-02-03T08:29:52.841Z,2.75
2018-02-03T08:31:02.815Z,2.76
2018-02-03T08:32:12.812Z,2.8
2018-02-03T08:33:22.797Z,2.82
2018-02-03T08:34:32.790Z,2.83
2018-02-03T08:35:42.771Z,2.87
2018-02-03T08:36:52.501Z,2.75
2018-02-03T08:38:02.490Z,2.87
2018-02-03T08:39:12.212Z,2.85
2018-02-03T08:40:22.188Z,2.72
2018-02-03T08:41:32.189Z,2.73
2018-02-03T08:42:42.178Z,2.76
2018-02-03T08:43:51.946Z,2.75
2018-02-03T08:45:01.973Z,2.64
2018-02-03T08:46:11.689Z,2.51
2018-02-03T08:47:21.685Z,2.43
2018-02-03T08:48:31.671Z,2.34
2018-02-03T08:49:41.396Z,2.34
2018-02-03T08:50:51.133Z,2.36
2018-02-03T08:52:01.133Z,2.32
2018-02-03T08:53:11.120Z,2.32
2018-02-03T08:54:20.842Z,2.25
2018-02-03T08:55:30.837Z,2.25
2018-02-03T08:56:40.577Z,2.33
2018-02-03T08:57:50.630Z,2.23
2018-02-03T08:59:00.614Z,2.32
2018-02-03T09:00:10.353Z,2.21
2018-02-03T09:01:20.081Z,2.28
2018-02-03T09:02:29.805Z,2.26
2018-02-03T09:03:39.794Z,2.28
2018-02-03T09:04:49.764Z,2.36
2018-02-03T09:05:59.771Z,2.39
2018-02-03T09:07:09.750Z,2.39
2018-02-03T09:08:19.731Z,2.37
2018-02-03T09:09:29.468Z,2.28
2018-02-03T09:10:39.459Z,2.4
2018-02-03T09:11:49.188Z,2.32
2018-02-03T09:12:59.155Z,2.32
2018-02-03T09:14:09.148Z,2.33
2018-02-03T09:15:19.163Z,2.34
2018-02-03T09:16:28.916Z,2.28
2018-02-03T09:17:38.637Z,2.23
2018-02-03T09:18:48.623Z,2.25
2018-02-03T09:19:58.603Z,2.19
2018-02-03T09:21:08.584Z,2.12
2018-02-03T09:22:18.319Z,2.14
2018-02-03T09:23:28.292Z,2.16
2018-02-03T09:24:38.278Z,2.1
2018-02-03T09:25:48.023Z,2.1
2018-02-03T09:26:58.003Z,2.1
2018-02-03T09:28:07.718Z,2.12
2018-02-03T09:29:17.447Z,2.16
2018-02-03T09:30:27.448Z,1.98
2018-02-03T09:31:37.427Z,2.04
2018-02-03T09:32:47.147Z,2.08
2018-02-03T09:33:57.133Z,2.04
2018-02-03T09:35:07.122Z,1.89
2018-02-03T09:36:17.111Z,2.03
2018-02-03T09:37:26.830Z,1.92
2018-02-03T09:38:37.036Z,1.93
2018-02-03T09:39:46.510Z,2.03
2018-02-03T09:40:56.231Z,1.92
2018-02-03T09:42:05.699Z,1.95
2018-02-03T09:43:15.154Z,2.08
2018-02-03T09:44:25.157Z,2.05
2018-02-03T09:45:35.145Z,2.04
2018-02-03T09:46:44.877Z,2
2018-02-03T09:47:54.860Z,1.92
2018-02-03T09:49:04.870Z,2.01
2018-02-03T09:50:14.346Z,2.07
2018-02-03T09:51:24.354Z,2.1
2018-02-03T09:52:34.350Z,2.01
2018-02-03T09:53:44.338Z,2
2018-02-03T09:54:54.319Z,2.03
2018-02-03T09:56:04.044Z,2.01
2018-02-03T09:57:14.029Z,2.05
2018-02-03T09:58:23.769Z,2.01
2018-02-03T09:59:33.754Z,2.03
2018-02-03T10:00:43.744Z,2.04
2018-02-03T10:01:53.749Z,2.03
2018-02-03T10:03:03.742Z,2.01
2018-02-03T10:04:13.483Z,2.07
2018-02-03T10:05:23.471Z,2.23
2018-02-03T10:06:33.462Z,2.14
2018-02-03T10:07:43.440Z,2.1
2018-02-03T10:08:53.439Z,2.1
2018-02-03T10:10:03.426Z,2.04
2018-02-03T10:11:13.153Z,2.05
2018-02-03T10:12:22.876Z,2.05
2018-02-03T10:13:32.856Z,2.05
2018-02-03T10:14:42.857Z,2.12
2018-02-03T10:15:52.845Z,2.01
2018-02-03T10:17:02.625Z,2.15
2018-02-03T10:18:12.610Z,2.04
2018-02-03T10:19:22.606Z,2.07
2018-02-03T10:20:32.603Z,2.04
2018-02-03T10:21:42.333Z,2.14
2018-02-03T10:22:52.324Z,2
2018-02-03T10:24:02.057Z,2.03
2018-02-03T10:25:12.060Z,2
2018-02-03T10:26:21.797Z,2.01
2018-02-03T10:27:31.796Z,2.07
2018-02-03T10:28:41.777Z,2.04
2018-02-03T10:29:51.754Z,2.05
2018-02-03T10:31:01.505Z,2.07
2018-02-03T10:32:11.534Z,2.01
2018-02-03T10:33:21.507Z,2.04
2018-02-03T10:34:31.493Z,2.05
2018-02-03T10:35:41.509Z,2.03
2018-02-03T10:36:51.475Z,2.03
2018-02-03T10:38:01.461Z,2.03
2018-02-03T10:39:11.204Z,2.08
2018-02-03T10:40:21.184Z,2.1
2018-02-03T10:41:31.173Z,2.07
2018-02-03T10:42:40.898Z,2
2018-02-03T10:43:50.374Z,2.07
2018-02-03T10:45:00.341Z,2
2018-02-03T10:46:10.327Z,2.01
2018-02-03T10:47:20.320Z,2.01
2018-02-03T10:48:30.314Z,1.95
2018-02-03T10:49:40.299Z,2
2018-02-03T10:50:50.299Z,1.92
2018-02-03T10:52:00.299Z,1.93
2018-02-03T10:53:10.281Z,1.92
2018-02-03T10:54:19.754Z,1.82
2018-02-03T10:55:29.502Z,1.79
2018-02-03T10:56:39.214Z,1.82
2018-02-03T10:57:49.211Z,1.92
2018-02-03T10:58:59.190Z,1.85
2018-02-03T11:00:08.654Z,1.93
2018-02-03T11:01:18.652Z,1.88
2018-02-03T11:02:28.668Z,1.93
2018-02-03T11:03:38.135Z,1.89
2018-02-03T11:04:48.148Z,1.92
2018-02-03T11:05:57.877Z,1.89
2018-02-03T11:07:07.362Z,1.89
2018-02-03T11:08:17.430Z,1.85
2018-02-03T11:09:27.404Z,1.86
2018-02-03T11:10:37.399Z,1.78
2018-02-03T11:11:47.389Z,1.78
2018-02-03T11:12:57.122Z,1.76
2018-02-03T11:14:07.099Z,1.85
2018-02-03T11:15:16.833Z,1.81
2018-02-03T11:16:26.816Z,1.81
2018-02-03T11:17:36.578Z,1.89
2018-02-03T11:18:46.311Z,1.93
2018-02-03T11:19:56.292Z,1.92
2018-02-03T11:21:05.776Z,1.86
2018-02-03T11:22:15.764Z,1.93
2018-02-03T11:23:25.491Z,1.88
2018-02-03T11:24:35.467Z,1.84
2018-02-03T11:25:45.482Z,1.82
2018-02-03T11:26:55.527Z,1.81
2018-02-03T11:28:05.245Z,1.92
2018-02-03T11:29:15.245Z,1.89
2018-02-03T11:30:25.249Z,1.98
2018-02-03T11:31:34.451Z,2.05
2018-02-03T11:32:44.446Z,1.89
2018-02-03T11:33:54.436Z,2.04
2018-02-03T11:35:04.160Z,2
2018-02-03T11:36:14.213Z,2.01
2018-02-03T11:37:24.200Z,2.03
2018-02-03T11:38:34.176Z,2.04
2018-02-03T11:39:43.637Z,2.16
2018-02-03T11:40:53.625Z,2.18
2018-02-03T11:42:03.629Z,2.03
2018-02-03T11:43:13.653Z,2.07
2018-02-03T11:44:23.632Z,2.14
2018-02-03T11:45:33.637Z,2.08
2018-02-03T11:46:42.588Z,2.1
2018-02-03T11:47:52.577Z,2.15
2018-02-03T11:49:02.363Z,2.15
2018-02-03T11:50:11.840Z,2.03
2018-02-03T11:51:21.835Z,2.07
2018-02-03T11:52:31.825Z,2.1
2018-02-03T11:53:41.609Z,2.01
2018-02-03T11:54:51.608Z,2.07
2018-02-03T11:56:01.600Z,2.1
2018-02-03T11:57:11.588Z,2.19
2018-02-03T11:58:21.577Z,2.07
2018-02-03T11:59:31.319Z,2.14
2018-02-03T12:00:41.029Z,1.97
2018-02-03T12:01:50.507Z,2.03
2018-02-03T12:03:00.242Z,2.01
2018-02-03T12:04:09.717Z,2.14
2018-02-03T12:05:19.450Z,2.04
2018-02-03T12:06:28.907Z,2.03
2018-02-03T12:07:38.663Z,2
2018-02-03T12:08:48.650Z,2.05
2018-02-03T12:09:58.635Z,2.01
2018-02-03T12:11:08.698Z,2
2018-02-03T12:12:18.387Z,1.97
2018-02-03T12:13:28.380Z,2
2018-02-03T12:14:38.133Z,1.93
2018-02-03T12:15:48.127Z,2.01
2018-02-03T12:16:57.855Z,1.97
2018-02-03T12:18:07.594Z,2
2018-02-03T12:19:17.320Z,2.03
2018-02-03T12:20:27.295Z,1.93
2018-02-03T12:21:37.308Z,1.93
2018-02-03T12:22:47.281Z,1.98
2018-02-03T12:23:57.017Z,1.93
2018-02-03T12:25:07.016Z,1.97
2018-02-03T12:26:16.488Z,1.92
2018-02-03T12:27:26.244Z,1.95
2018-02-03T12:28:35.977Z,2.05
2018-02-03T12:29:45.972Z,2
2018-02-03T12:30:55.716Z,2
2018-02-03T12:32:05.687Z,1.85
2018-02-03T12:33:15.684Z,1.98
2018-02-03T12:34:25.402Z,1.97
2018-02-03T12:35:35.410Z,2
2018-02-03T12:36:44.898Z,1.98
2018-02-03T12:37:54.891Z,2.05
2018-02-03T12:39:04.887Z,2.01
2018-02-03T12:40:14.894Z,2.07
2018-02-03T12:41:24.894Z,2.01
2018-02-03T12:42:34.895Z,2.01
2018-02-03T12:43:44.880Z,2.01
2018-02-03T12:44:55.001Z,1.95
2018-02-03T12:46:05.012Z,1.97
2018-02-03T12:47:15.007Z,2.01
2018-02-03T12:48:24.725Z,2.03
2018-02-03T12:49:34.736Z,2.03
2018-02-03T12:50:44.215Z,2.01
2018-02-03T12:51:54.217Z,2.05
2018-02-03T12:53:03.949Z,2.03
2018-02-03T12:54:13.678Z,1.97
2018-02-03T12:55:23.684Z,1.97
2018-02-03T12:56:33.658Z,2.03
2018-02-03T12:57:43.118Z,1.98
2018-02-03T12:58:52.866Z,2
2018-02-03T13:00:02.876Z,1.89
2018-02-03T13:01:12.609Z,2
2018-02-03T13:02:22.614Z,2.04
2018-02-03T13:03:32.348Z,2.08
2018-02-03T13:04:42.326Z,2.07
2018-02-03T13:05:52.321Z,2.08
2018-02-03T13:07:02.300Z,2.14
2018-02-03T13:08:12.026Z,2.15
2018-02-03T13:09:22.017Z,2.18
2018-02-03T13:10:31.737Z,2.15
2018-02-03T13:11:41.729Z,2.03
2018-02-03T13:12:51.458Z,2.12
2018-02-03T13:14:01.452Z,2.03
2018-02-03T13:15:11.177Z,2.19
2018-02-03T13:16:20.640Z,2.04
2018-02-03T13:17:30.624Z,2.05
2018-02-03T13:18:40.105Z,2.04
2018-02-03T13:19:50.101Z,2
2018-02-03T13:20:59.585Z,2.05
2018-02-03T13:22:09.596Z,2.03
2018-02-03T13:23:19.608Z,2.03
2018-02-03T13:24:29.603Z,2.03
2018-02-03T13:25:39.593Z,2.04
2018-02-03T13:26:49.586Z,2.12
2018-02-03T13:27:59.312Z,2.12
2018-02-03T13:29:09.306Z,2.16
2018-02-03T13:30:19.291Z,2.18
2018-02-03T13:31:28.757Z,2.15
2018-02-03T13:32:38.492Z,2.07
2018-02-03T13:33:48.227Z,2.1
2018-02-03T13:34:58.220Z,2.14
2018-02-03T13:36:07.959Z,2.14
2018-02-03T13:37:17.941Z,2.16
2018-02-03T13:38:28.006Z,2.16
2018-02-03T13:39:38.000Z,2.3
2018-02-03T13:40:47.998Z,2.14
2018-02-03T13:41:57.744Z,2.12
2018-02-03T13:43:07.745Z,2.08
2018-02-03T13:44:17.484Z,2.08
2018-02-03T13:45:27.216Z,2.05
2018-02-03T13:46:37.275Z,2.05
2018-02-03T13:47:47.283Z,2.12
2018-02-03T13:48:57.267Z,2.15
2018-02-03T13:50:07.018Z,2.07
2018-02-03T13:51:17.022Z,2.18
2018-02-03T13:52:26.480Z,2.08
2018-02-03T13:53:36.214Z,2.08
2018-02-03T13:54:46.215Z,2.14
2018-02-03T13:55:56.192Z,2.16
2018-02-03T13:57:05.662Z,2.21
2018-02-03T13:58:15.422Z,2.19
2018-02-03T13:59:25.420Z,2.16
2018-02-03T14:00:35.160Z,2.21
2018-02-03T14:01:45.172Z,2.12
2018-02-03T14:02:54.911Z,2.19
2018-02-03T14:04:04.912Z,2.04
2018-02-03T14:05:14.665Z,2.12
2018-02-03T14:06:24.651Z,2.15
2018-02-03T14:07:34.640Z,2.08
2018-02-03T14:08:44.380Z,2.01
2018-02-03T14:09:54.365Z,1.89
2018-02-03T14:11:04.356Z,2.01
2018-02-03T14:12:14.101Z,2.07
2018-02-03T14:13:24.091Z,1.89
2018-02-03T14:14:34.076Z,1.86
2018-02-03T14:15:44.090Z,1.92
2018-02-03T14:16:53.813Z,2
2018-02-03T14:18:03.802Z,1.88
2018-02-03T14:19:13.799Z,2.03
2018-02-03T14:20:23.779Z,1.98
2018-02-03T14:21:33.244Z,1.92
2018-02-03T14:22:43.264Z,1.98
2018-02-03T14:23:52.985Z,2.01
2018-02-03T14:25:02.734Z,1.92
2018-02-03T14:26:12.735Z,1.97
2018-02-03T14:27:22.736Z,1.86
2018-02-03T14:28:31.947Z,1.97
2018-02-03T14:29:41.938Z,1.95
2018-02-03T14:30:52.069Z,1.95
2018-02-03T14:32:01.885Z,1.95
2018-02-03T14:33:11.366Z,1.88
2018-02-03T14:34:21.375Z,1.82
2018-02-03T14:35:30.861Z,1.81
2018-02-03T14:36:40.864Z,1.76
2018-02-03T14:37:50.865Z,1.75
2018-02-03T14:39:00.620Z,1.75
2018-02-03T14:40:10.612Z,1.79
2018-02-03T14:41:20.086Z,1.78
2018-02-03T14:42:30.087Z,1.7
2018-02-03T14:43:40.094Z,1.64
2018-02-03T14:44:50.084Z,1.79
2018-02-03T14:46:00.064Z,1.67
2018-02-03T14:47:10.067Z,1.75
2018-02-03T14:48:20.039Z,1.68
2018-02-03T14:49:29.771Z,1.75
2018-02-03T14:50:39.769Z,1.75
2018-02-03T14:51:49.759Z,1.61
2018-02-03T14:52:59.732Z,1.64
2018-02-03T14:54:09.726Z,1.63
2018-02-03T14:55:19.699Z,1.6
2018-02-03T14:56:29.420Z,1.56
2018-02-03T14:57:39.400Z,1.64
2018-02-03T14:58:49.387Z,1.53
2018-02-03T14:59:59.398Z,1.6
2018-02-03T15:01:09.436Z,1.5
2018-02-03T15:02:19.178Z,1.57
2018-02-03T15:03:28.910Z,1.61
2018-02-03T15:04:38.905Z,1.57
2018-02-03T15:05:48.893Z,1.58
2018-02-03T15:06:58.613Z,1.56
2018-02-03T15:08:08.335Z,1.53
2018-02-03T15:09:18.326Z,1.58
2018-02-03T15:10:28.354Z,1.48
2018-02-03T15:11:38.089Z,1.49
2018-02-03T15:12:47.811Z,1.5
2018-02-03T15:13:57.803Z,1.45
2018-02-03T15:15:07.549Z,1.49
2018-02-03T15:16:17.519Z,1.46
2018-02-03T15:17:27.276Z,1.46
2018-02-03T15:18:37.269Z,1.42
2018-02-03T15:19:46.995Z,1.43
2018-02-03T15:20:57.014Z,1.43
2018-02-03T15:22:06.739Z,1.49
2018-02-03T15:23:16.741Z,1.46
2018-02-03T15:24:26.543Z,1.46
2018-02-03T15:25:36.535Z,1.46
2018-02-03T15:26:46.273Z,1.42
2018-02-03T15:27:56.259Z,1.4
2018-02-03T15:29:06.264Z,1.36
2018-02-03T15:30:16.009Z,1.45
2018-02-03T15:31:25.989Z,1.32
2018-02-03T15:32:35.982Z,1.43
2018-02-03T15:33:45.975Z,1.42
2018-02-03T15:34:55.963Z,1.34
2018-02-03T15:36:05.692Z,1.43